createdAt,value
2023-02-16T00:00:29.392Z,29.95
2023-02-16T00:02:56.312Z,31.25
2023-02-16T00:05:34.382Z,38.42
2023-02-16T00:08:01.724Z,18.42
2023-02-16T00:10:33.847Z,44.30
2023-02-16T00:13:19.242Z,44.50
2023-02-16T00:15:46.210Z,47.75
2023-02-16T00:18:17.154Z,40.97
2023-02-16T00:20:43.833Z,36.47
2023-02-16T00:23:10.464Z,41.42
2023-02-16T00:25:37.940Z,38.60
2023-02-16T00:28:10.264Z,35.95
2023-02-16T00:30:36.803Z,39.78
2023-02-16T00:33:05.542Z,51.65
2023-02-16T00:35:32.047Z,51.80
2023-02-16T00:37:58.726Z,42.88
2023-02-16T00:40:25.343Z,41.25
2023-02-16T00:42:51.950Z,43.55
2023-02-16T00:45:21.015Z,43.80
2023-02-16T00:47:51.132Z,46.28
2023-02-16T00:50:22.282Z,43.38
2023-02-16T00:52:49.543Z,40.45
2023-02-16T00:55:26.810Z,52.42
2023-02-16T00:58:22.660Z,48.55
2023-02-16T01:00:52.611Z,47.47
2023-02-16T01:03:23.430Z,47.33
2023-02-16T01:06:10.460Z,42.85
2023-02-16T01:08:55.727Z,48.80
2023-02-16T01:11:24.151Z,50.28
2023-02-16T01:13:51.867Z,48.20
2023-02-16T01:16:25.094Z,43.10
2023-02-16T01:18:52.481Z,24.67
2023-02-16T01:21:19.456Z,37.78
2023-02-16T01:23:46.039Z,41.25
2023-02-16T01:26:16.479Z,42.95
2023-02-16T01:28:43.805Z,41.88
2023-02-16T01:31:11.410Z,41.92
2023-02-16T01:33:38.019Z,45.47
2023-02-16T01:36:05.643Z,54.13
2023-02-16T01:38:32.355Z,44.90
2023-02-16T01:41:22.838Z,45.22
2023-02-16T01:43:59.843Z,37.92
2023-02-16T01:46:53.173Z,40.45
2023-02-16T01:49:21.026Z,44.38
2023-02-16T01:52:01.253Z,45.85
2023-02-16T01:54:53.343Z,33.70
2023-02-16T01:57:33.596Z,44.20
2023-02-16T02:00:29.702Z,39.63
2023-02-16T02:03:19.849Z,35.47
2023-02-16T02:05:48.434Z,31.77
2023-02-16T02:08:17.938Z,36.97
2023-02-16T02:11:09.124Z,36.85
2023-02-16T02:14:00.780Z,47.20
2023-02-16T02:16:28.457Z,48.80
2023-02-16T02:18:55.261Z,42.03
2023-02-16T02:22:21.973Z,33.47
2023-02-16T02:25:33.233Z,31.40
2023-02-16T02:28:25.773Z,33.28
2023-02-16T02:31:10.681Z,48.72
2023-02-16T02:34:15.492Z,31.40
2023-02-16T02:39:45.993Z,44.70
2023-02-16T02:42:51.685Z,47.28
2023-02-16T02:45:36.161Z,53.10
2023-02-16T02:48:03.156Z,42.92
2023-02-16T02:50:32.567Z,43.05
2023-02-16T02:53:02.237Z,55.35
2023-02-16T02:55:52.151Z,47.38
2023-02-16T02:58:42.903Z,55.47
2023-02-16T03:01:11.924Z,43.58
2023-02-16T03:03:46.632Z,36.55
2023-02-16T03:06:33.896Z,26.33
2023-02-16T03:09:14.187Z,44.55
2023-02-16T03:12:00.998Z,24.95
2023-02-16T03:14:39.460Z,34.58
2023-02-16T03:17:36.748Z,30.48
2023-02-16T03:20:25.524Z,37.90
2023-02-16T03:23:10.859Z,25.25
2023-02-16T03:25:57.841Z,33.47
2023-02-16T03:28:46.533Z,32.08
2023-02-16T03:31:18.771Z,44.78
2023-02-16T03:33:46.918Z,37.45
2023-02-16T03:36:13.831Z,38.13
2023-02-16T03:38:40.381Z,35.03
2023-02-16T03:41:07.012Z,37.88
2023-02-16T03:43:34.266Z,54.25
2023-02-16T03:46:00.886Z,66.13
2023-02-16T03:48:27.498Z,53.90
2023-02-16T03:50:54.180Z,84.60
2023-02-16T03:53:20.739Z,51.58
2023-02-16T03:55:48.536Z,31.67
2023-02-16T03:58:18.459Z,40.58
2023-02-16T04:00:45.357Z,40.42
2023-02-16T04:03:12.140Z,20.02
2023-02-16T04:05:38.794Z,68.95
2023-02-16T04:08:06.551Z,34.92
2023-02-16T04:10:33.331Z,57.05
2023-02-16T04:13:00.042Z,196.05
2023-02-16T04:15:28.560Z,105.85
2023-02-16T04:17:55.414Z,23.50
2023-02-16T04:20:24.968Z,47.47
2023-02-16T04:22:51.586Z,18.00
2023-02-16T04:25:18.934Z,29.65
2023-02-16T04:27:45.983Z,21.85
2023-02-16T04:30:15.198Z,39.33
2023-02-16T04:32:41.822Z,40.90
2023-02-16T04:35:08.377Z,39.28
2023-02-16T04:37:35.687Z,78.47
2023-02-16T04:40:02.975Z,98.00
2023-02-16T04:42:29.560Z,87.40
2023-02-16T04:44:56.089Z,32.75
2023-02-16T04:47:25.892Z,71.03
2023-02-16T04:49:53.740Z,28.52
2023-02-16T04:52:20.648Z,38.22
2023-02-16T04:54:47.462Z,44.80
2023-02-16T04:57:14.026Z,68.60
2023-02-16T04:59:40.576Z,31.27
2023-02-16T05:02:07.418Z,61.85
2023-02-16T05:04:34.518Z,21.48
2023-02-16T05:07:01.212Z,17.85
2023-02-16T05:09:27.808Z,24.85
2023-02-16T05:12:12.909Z,87.75
2023-02-16T05:14:42.599Z,83.32
2023-02-16T05:17:15.004Z,88.82
2023-02-16T05:19:43.732Z,67.00
2023-02-16T05:22:11.085Z,51.28
2023-02-16T05:24:38.320Z,38.85
2023-02-16T05:27:07.000Z,35.33
2023-02-16T05:29:34.126Z,85.20
2023-02-16T05:32:04.273Z,22.25
2023-02-16T05:34:31.544Z,81.90
2023-02-16T05:36:58.086Z,67.45
2023-02-16T05:39:25.025Z,27.85
2023-02-16T05:41:51.651Z,71.43
2023-02-16T05:44:18.676Z,51.45
2023-02-16T05:46:46.577Z,40.72
2023-02-16T05:49:14.304Z,30.50
2023-02-16T05:51:40.869Z,32.22
2023-02-16T05:54:08.280Z,47.03
2023-02-16T05:56:35.024Z,32.58
2023-02-16T05:59:01.634Z,41.28
2023-02-16T06:01:29.205Z,22.08
2023-02-16T06:03:55.815Z,20.00
2023-02-16T06:06:22.423Z,28.58
2023-02-16T06:08:48.998Z,37.90
2023-02-16T06:11:34.341Z,41.10
2023-02-16T06:14:02.651Z,60.88
2023-02-16T06:16:31.637Z,22.40
2023-02-16T06:18:59.154Z,27.67
2023-02-16T06:21:26.662Z,26.77
2023-02-16T06:23:53.552Z,28.17
2023-02-16T06:26:20.304Z,20.63
2023-02-16T06:28:46.920Z,34.90
2023-02-16T06:31:14.024Z,20.10
2023-02-16T06:33:40.776Z,25.63
2023-02-16T06:36:07.778Z,21.98
2023-02-16T06:38:34.317Z,27.52
2023-02-16T06:41:01.142Z,26.05
2023-02-16T06:43:29.881Z,23.35
2023-02-16T06:45:57.467Z,20.58
2023-02-16T06:48:24.172Z,28.17
2023-02-16T06:50:51.297Z,17.48
2023-02-16T06:53:18.074Z,27.52
2023-02-16T06:55:44.667Z,32.58
2023-02-16T06:58:11.545Z,29.70
2023-02-16T07:00:38.532Z,17.85
2023-02-16T07:03:05.247Z,23.17
2023-02-16T07:05:31.822Z,26.38
2023-02-16T07:07:58.362Z,21.88
2023-02-16T07:10:24.889Z,30.65
2023-02-16T07:12:51.474Z,67.43
2023-02-16T07:15:18.050Z,43.13
2023-02-16T07:17:44.619Z,31.52
2023-02-16T07:20:12.866Z,19.80
2023-02-16T07:22:39.828Z,18.33
2023-02-16T07:25:06.907Z,29.40
2023-02-16T07:27:33.438Z,28.98
2023-02-16T07:30:00.000Z,54.10
2023-02-16T07:32:27.218Z,66.10
2023-02-16T07:34:53.853Z,51.13
2023-02-16T07:37:20.379Z,21.15
2023-02-16T07:39:46.941Z,53.03
2023-02-16T07:42:13.532Z,31.92
2023-02-16T07:44:40.029Z,25.45
2023-02-16T07:47:06.635Z,27.45
2023-02-16T07:49:33.221Z,53.13
2023-02-16T07:51:59.811Z,37.55
2023-02-16T07:54:26.364Z,28.70
2023-02-16T07:56:52.953Z,34.63
2023-02-16T07:59:19.483Z,29.73
2023-02-16T08:01:46.184Z,14.82
2023-02-16T08:04:12.837Z,27.92
2023-02-16T08:06:39.815Z,24.10
2023-02-16T08:09:06.372Z,29.05
2023-02-16T08:11:33.101Z,30.70
2023-02-16T08:14:00.407Z,22.48
2023-02-16T08:16:28.373Z,18.35
2023-02-16T08:19:00.030Z,22.60
2023-02-16T08:21:31.051Z,32.38
2023-02-16T08:24:02.887Z,33.10
2023-02-16T08:26:37.660Z,24.65
2023-02-16T08:29:05.868Z,28.92
2023-02-16T08:31:35.184Z,21.83
2023-02-16T08:34:03.442Z,26.65
2023-02-16T08:36:35.174Z,20.38
2023-02-16T08:39:07.586Z,24.88
2023-02-16T08:41:36.862Z,26.20
2023-02-16T08:44:07.688Z,27.15
2023-02-16T08:46:35.510Z,28.92
2023-02-16T08:49:02.364Z,28.77
2023-02-16T08:51:31.853Z,29.75
2023-02-16T08:54:00.280Z,32.33
2023-02-16T08:56:29.739Z,24.08
2023-02-16T08:58:57.096Z,30.42
2023-02-16T09:01:23.919Z,41.20
2023-02-16T09:03:51.269Z,21.63
2023-02-16T09:06:21.445Z,43.95
2023-02-16T09:08:53.115Z,22.05
2023-02-16T09:11:20.635Z,22.92
2023-02-16T09:13:47.502Z,25.52
2023-02-16T09:16:21.048Z,24.50
2023-02-16T09:18:48.559Z,31.50
2023-02-16T09:21:18.401Z,32.38
2023-02-16T09:23:50.019Z,26.70
2023-02-16T09:26:18.332Z,51.13
2023-02-16T09:28:45.936Z,30.80
2023-02-16T09:31:25.812Z,22.20
2023-02-16T09:33:58.144Z,23.83
2023-02-16T09:36:24.892Z,18.23
2023-02-16T09:38:51.647Z,32.85
2023-02-16T09:41:43.301Z,28.00
2023-02-16T09:44:15.776Z,33.28
2023-02-16T09:46:42.865Z,32.85
2023-02-16T09:49:34.877Z,18.45
2023-02-16T09:52:42.794Z,25.77
2023-02-16T09:55:16.203Z,29.08
2023-02-16T09:57:57.045Z,34.40
2023-02-16T10:00:43.595Z,24.95
2023-02-16T10:03:19.097Z,28.65
2023-02-16T10:06:03.082Z,29.42
2023-02-16T10:14:37.167Z,29.98
2023-02-16T10:17:28.379Z,25.02
2023-02-16T10:20:23.745Z,21.60
2023-02-16T10:23:08.087Z,27.83
2023-02-16T10:25:44.260Z,29.40
2023-02-16T10:28:19.464Z,26.48
2023-02-16T10:30:58.347Z,26.67
2023-02-16T10:33:38.268Z,34.90
2023-02-16T10:36:29.289Z,26.45
2023-02-16T10:39:09.880Z,31.70
2023-02-16T10:41:45.713Z,34.38
2023-02-16T10:44:28.752Z,30.75
2023-02-16T10:47:00.595Z,22.13
2023-02-16T10:49:30.607Z,32.53
2023-02-16T10:51:59.230Z,24.20
2023-02-16T10:54:29.682Z,28.58
2023-02-16T10:57:05.489Z,30.67
2023-02-16T10:59:40.988Z,32.08
2023-02-16T11:02:29.085Z,33.15
2023-02-16T11:04:58.139Z,34.05
2023-02-16T11:07:28.318Z,37.67
2023-02-16T11:09:57.341Z,26.55
2023-02-16T11:12:24.336Z,20.40
2023-02-16T11:14:58.910Z,28.88
2023-02-16T11:17:26.334Z,30.38
2023-02-16T11:20:00.120Z,33.90
2023-02-16T11:22:39.634Z,24.30
2023-02-16T11:25:18.808Z,33.35
2023-02-16T11:27:58.200Z,21.73
2023-02-16T11:30:37.152Z,33.92
2023-02-16T11:33:18.411Z,24.70
2023-02-16T11:35:45.803Z,30.23
2023-02-16T11:38:37.050Z,24.35
2023-02-16T11:41:07.217Z,28.25
2023-02-16T11:43:37.661Z,19.05
2023-02-16T11:46:14.864Z,26.02
2023-02-16T11:48:42.728Z,18.35
2023-02-16T11:51:15.183Z,25.20
2023-02-16T11:53:44.315Z,27.83
2023-02-16T11:56:27.480Z,25.40
2023-02-16T11:59:05.410Z,29.80
2023-02-16T12:02:00.592Z,23.73
2023-02-16T12:04:57.856Z,28.60
2023-02-16T12:07:47.016Z,20.95
2023-02-16T12:10:28.728Z,23.23
2023-02-16T12:13:04.868Z,27.80
2023-02-16T12:16:02.011Z,27.90
2023-02-16T12:19:14.205Z,25.35
2023-02-16T12:22:28.259Z,26.17
2023-02-16T12:25:46.037Z,27.00
2023-02-16T12:28:24.662Z,23.77
2023-02-16T12:31:17.409Z,26.58
2023-02-16T12:34:13.706Z,31.13
2023-02-16T12:37:17.581Z,28.77
2023-02-16T12:40:02.494Z,31.30
2023-02-16T12:42:32.007Z,23.30
2023-02-16T12:45:04.966Z,24.27
2023-02-16T12:47:37.809Z,21.67
2023-02-16T12:50:29.804Z,21.00
2023-02-16T12:53:03.016Z,22.98
2023-02-16T12:55:38.714Z,31.13
2023-02-16T12:58:07.972Z,27.02
2023-02-16T13:00:48.606Z,27.20
2023-02-16T13:03:23.430Z,24.50
2023-02-16T13:06:00.581Z,25.33
2023-02-16T13:08:39.331Z,29.63
2023-02-16T13:11:14.124Z,23.65
2023-02-16T13:13:41.471Z,29.25
2023-02-16T13:16:30.766Z,26.52
2023-02-16T13:18:58.272Z,22.08
2023-02-16T13:21:51.346Z,26.48
2023-02-16T13:24:46.526Z,22.58
2023-02-16T13:27:32.708Z,26.00
2023-02-16T13:30:21.046Z,23.67
2023-02-16T13:33:07.152Z,32.90
2023-02-16T13:36:22.969Z,26.15
2023-02-16T13:39:22.805Z,18.35
2023-02-16T13:42:14.787Z,26.73
2023-02-16T13:45:04.551Z,22.73
2023-02-16T13:47:37.046Z,22.23
2023-02-16T13:50:09.783Z,19.55
2023-02-16T13:52:41.246Z,20.52
2023-02-16T13:55:31.671Z,27.77
2023-02-16T13:58:04.471Z,34.13
2023-02-16T14:00:57.365Z,24.73
2023-02-16T14:03:23.888Z,24.65
2023-02-16T14:05:56.338Z,33.00
2023-02-16T14:08:30.461Z,17.45
2023-02-16T14:11:04.027Z,27.50
2023-02-16T14:13:39.378Z,26.63
2023-02-16T14:16:13.293Z,17.42
2023-02-16T14:18:55.091Z,36.45
2023-02-16T14:21:41.909Z,24.88
2023-02-16T14:24:33.307Z,24.15
2023-02-16T14:27:10.726Z,22.42
2023-02-16T14:29:38.947Z,24.48
2023-02-16T14:32:33.876Z,20.58
2023-02-16T14:35:08.876Z,32.05
2023-02-16T14:37:44.485Z,24.77
2023-02-16T14:40:31.713Z,23.02
2023-02-16T14:43:05.116Z,29.92
2023-02-16T14:45:53.772Z,24.27
2023-02-16T14:48:41.404Z,26.05
2023-02-16T14:51:32.098Z,34.00
2023-02-16T14:54:53.038Z,33.72
2023-02-16T14:57:37.322Z,25.48
2023-02-16T15:00:19.584Z,27.52
2023-02-16T15:03:14.024Z,26.70
2023-02-16T15:08:35.364Z,18.40
2023-02-16T15:11:23.060Z,29.60
2023-02-16T15:13:53.320Z,39.70
2023-02-16T15:16:22.698Z,30.10
2023-02-16T15:18:53.429Z,35.53
2023-02-16T15:21:21.513Z,36.25
2023-02-16T15:23:54.094Z,25.50
2023-02-16T15:26:24.556Z,26.25
2023-02-16T15:28:56.861Z,26.63
2023-02-16T15:31:32.521Z,43.45
2023-02-16T15:34:08.269Z,39.70
2023-02-16T15:36:38.437Z,23.05
2023-02-16T15:39:41.295Z,25.92
2023-02-16T15:42:15.007Z,30.40
2023-02-16T15:44:41.768Z,28.63
2023-02-16T15:47:10.674Z,20.40
2023-02-16T15:49:39.939Z,33.47
2023-02-16T15:52:12.178Z,41.20
2023-02-16T15:54:40.596Z,40.10
2023-02-16T15:57:30.923Z,46.05
2023-02-16T16:00:20.828Z,33.88
2023-02-16T16:02:58.469Z,41.38
2023-02-16T16:05:28.836Z,45.65
2023-02-16T16:07:57.500Z,49.42
2023-02-16T16:10:32.701Z,41.75
2023-02-16T16:13:03.285Z,53.28
2023-02-16T16:15:32.564Z,44.90
2023-02-16T16:18:00.972Z,35.67
2023-02-16T16:20:41.660Z,39.63
2023-02-16T16:23:17.061Z,48.92
2023-02-16T16:25:46.812Z,32.92
2023-02-16T16:28:33.525Z,45.67
2023-02-16T16:31:12.439Z,41.38
2023-02-16T16:33:59.799Z,35.55
2023-02-16T16:36:40.363Z,51.25
2023-02-16T16:39:19.069Z,37.03
2023-02-16T16:41:56.565Z,36.30
2023-02-16T16:44:33.081Z,34.13
2023-02-16T16:47:27.014Z,42.95
2023-02-16T16:49:58.242Z,43.42
2023-02-16T16:52:40.912Z,36.53
2023-02-16T16:55:19.677Z,39.78
2023-02-16T16:57:48.861Z,26.20
2023-02-16T17:00:17.145Z,26.50
2023-02-16T17:02:43.859Z,27.27
2023-02-16T17:05:11.094Z,34.83
2023-02-16T17:07:37.749Z,45.10
2023-02-16T17:10:05.254Z,46.22
2023-02-16T17:12:32.427Z,65.32
2023-02-16T17:15:01.028Z,153.50
2023-02-16T17:17:27.913Z,180.52
2023-02-16T17:19:54.531Z,91.45
2023-02-16T17:22:21.850Z,66.22
2023-02-16T17:24:48.475Z,49.30
2023-02-16T17:27:15.291Z,44.20
2023-02-16T17:29:44.752Z,44.00
2023-02-16T17:32:11.461Z,52.30
2023-02-16T17:34:38.198Z,54.28
2023-02-16T17:37:09.326Z,75.82
2023-02-16T17:39:36.527Z,67.85
2023-02-16T17:42:03.567Z,50.33
2023-02-16T17:44:30.318Z,47.22
2023-02-16T17:46:57.181Z,31.40
2023-02-16T17:49:23.876Z,24.52
2023-02-16T17:51:50.478Z,33.97
2023-02-16T17:54:17.131Z,26.35
2023-02-16T17:56:46.645Z,28.52
2023-02-16T17:59:15.508Z,47.92
2023-02-16T18:01:45.555Z,47.03
2023-02-16T18:04:12.438Z,29.35
2023-02-16T18:06:39.096Z,17.88
2023-02-16T18:09:06.012Z,20.58
2023-02-16T18:11:32.673Z,30.50
2023-02-16T18:13:59.270Z,43.20
2023-02-16T18:16:27.410Z,28.55
2023-02-16T18:18:54.762Z,46.47
2023-02-16T18:21:21.320Z,32.00
2023-02-16T18:23:48.039Z,39.63
2023-02-16T18:26:16.289Z,28.20
2023-02-16T18:28:44.177Z,29.85
2023-02-16T18:31:14.557Z,46.00
2023-02-16T18:33:41.394Z,36.22
2023-02-16T18:36:08.713Z,29.80
2023-02-16T18:38:35.395Z,20.77
2023-02-16T18:41:02.069Z,20.95
2023-02-16T18:43:29.597Z,22.83
2023-02-16T18:45:56.268Z,20.52
2023-02-16T18:48:23.409Z,25.88
2023-02-16T18:50:50.123Z,22.63
2023-02-16T18:53:16.703Z,26.58
2023-02-16T18:55:43.297Z,21.27
2023-02-16T18:58:12.954Z,30.20
2023-02-16T19:00:39.662Z,18.33
2023-02-16T19:03:06.387Z,22.58
2023-02-16T19:05:33.630Z,15.35
2023-02-16T19:08:00.180Z,23.67
2023-02-16T19:10:27.475Z,15.52
2023-02-16T19:12:54.077Z,15.07
2023-02-16T19:15:20.618Z,21.83
2023-02-16T19:17:47.329Z,22.75
2023-02-16T19:20:18.155Z,21.65
2023-02-16T19:22:46.546Z,21.48
2023-02-16T19:25:14.173Z,32.45
2023-02-16T19:27:41.026Z,33.85
2023-02-16T19:30:08.392Z,20.15
2023-02-16T19:32:35.371Z,14.23
2023-02-16T19:35:02.185Z,10.60
2023-02-16T19:37:28.926Z,6.68
2023-02-16T19:39:55.621Z,9.93
2023-02-16T19:42:22.292Z,19.92
2023-02-16T19:44:49.118Z,8.10
2023-02-16T19:47:15.638Z,9.88
2023-02-16T19:49:42.708Z,10.25
2023-02-16T19:52:09.407Z,9.48
2023-02-16T19:54:35.986Z,16.15
2023-02-16T19:57:03.834Z,10.20
2023-02-16T19:59:31.633Z,11.65
2023-02-16T20:01:59.056Z,18.42
2023-02-16T20:04:26.126Z,15.55
2023-02-16T20:06:54.442Z,15.18
2023-02-16T20:09:22.125Z,18.90
2023-02-16T20:11:49.674Z,18.73
2023-02-16T20:14:16.438Z,31.27
2023-02-16T20:16:43.758Z,21.25
2023-02-16T20:19:10.587Z,20.02
2023-02-16T20:21:37.431Z,13.40
2023-02-16T20:24:06.168Z,26.90
2023-02-16T20:26:36.744Z,37.42
2023-02-16T20:29:05.776Z,16.55
2023-02-16T20:31:36.233Z,13.00
2023-02-16T20:34:03.983Z,12.90
2023-02-16T20:36:32.089Z,12.48
2023-02-16T20:38:59.662Z,24.95
2023-02-16T20:41:26.296Z,31.80
2023-02-16T20:43:53.326Z,25.88
2023-02-16T20:46:23.683Z,24.30
2023-02-16T20:48:51.057Z,21.00
2023-02-16T20:51:19.401Z,32.78
2023-02-16T20:53:46.493Z,20.67
2023-02-16T20:56:23.116Z,21.08
2023-02-16T20:58:51.649Z,23.92
2023-02-16T21:01:28.813Z,29.95
2023-02-16T21:03:57.219Z,28.80
2023-02-16T21:06:24.211Z,24.13
2023-02-16T21:08:50.918Z,33.08
2023-02-16T21:11:18.392Z,15.98
2023-02-16T21:13:46.064Z,30.48
2023-02-16T21:16:14.219Z,25.35
2023-02-16T21:24:04.642Z,32.17
2023-02-16T21:26:31.201Z,29.63
2023-02-16T21:45:14.564Z,22.30
2023-02-16T22:14:40.404Z,29.42
2023-02-16T22:17:07.720Z,31.67
2023-02-16T22:19:34.299Z,18.02
2023-02-16T22:22:00.838Z,35.33
2023-02-16T22:32:26.448Z,24.08
2023-02-16T22:34:54.311Z,27.88
2023-02-16T22:37:20.871Z,24.88
2023-02-16T22:39:47.565Z,22.08
2023-02-16T22:42:14.096Z,22.70
2023-02-16T22:44:40.645Z,16.90
2023-02-16T22:47:07.252Z,14.43
2023-02-16T22:49:33.835Z,19.38
2023-02-16T22:52:00.387Z,13.45
2023-02-16T22:54:26.932Z,20.02
2023-02-16T22:56:53.482Z,20.58
2023-02-16T22:59:20.029Z,24.13
2023-02-16T23:01:46.615Z,20.00
2023-02-16T23:04:15.451Z,30.55
2023-02-16T23:06:44.982Z,38.13
2023-02-16T23:09:20.271Z,32.20
2023-02-16T23:11:48.235Z,36.63
2023-02-16T23:14:18.569Z,30.20
2023-02-16T23:16:50.763Z,30.55
2023-02-16T23:19:20.800Z,24.67
2023-02-16T23:21:48.145Z,24.55
2023-02-16T23:24:17.701Z,34.35
2023-02-16T23:26:44.847Z,35.92
2023-02-16T23:29:11.888Z,33.38
2023-02-16T23:31:40.672Z,34.30
2023-02-16T23:34:07.800Z,34.55
2023-02-16T23:36:36.799Z,44.80
2023-02-16T23:39:09.046Z,31.98
2023-02-16T23:41:36.317Z,40.40
2023-02-16T23:44:04.282Z,28.88
2023-02-16T23:46:31.282Z,28.85
2023-02-16T23:48:57.975Z,33.42
2023-02-16T23:51:24.902Z,39.58
2023-02-16T23:53:51.554Z,35.65
2023-02-16T23:56:27.064Z,35.78
2023-02-16T23:58:57.436Z,33.22
